createdAt,value
2023-01-30T00:04:29.324Z,1.21
2023-01-30T00:09:30.813Z,1.22
2023-01-30T00:14:32.304Z,1.23
2023-01-30T00:19:33.812Z,1.25
2023-01-30T00:24:35.399Z,1.24
2023-01-30T00:29:36.943Z,1.23
2023-01-30T00:34:38.450Z,1.23
2023-01-30T00:39:39.948Z,1.22
2023-01-30T00:45:00.198Z,1.18
2023-01-30T00:50:01.803Z,1.18
2023-01-30T00:55:03.864Z,1.19
2023-01-30T01:00:06.099Z,1.16
2023-01-30T01:05:07.984Z,1.10
2023-01-30T01:10:16.219Z,1.10
2023-01-30T01:15:18.596Z,1.10
2023-01-30T01:20:23.119Z,1.04
2023-01-30T01:25:25.549Z,1.07
2023-01-30T01:30:27.102Z,1.06
2023-01-30T01:35:28.612Z,1.06
2023-01-30T01:40:48.695Z,1.04
2023-01-30T01:45:55.595Z,1.07
2023-01-30T01:51:15.800Z,1.11
2023-01-30T01:56:19.897Z,1.11
2023-01-30T02:06:25.250Z,1.07
2023-01-30T02:11:49.676Z,1.04
2023-01-30T02:16:51.227Z,0.97
2023-01-30T02:22:20.628Z,1.01
2023-01-30T02:28:00.775Z,1.05
2023-01-30T02:33:11.049Z,1.11
2023-01-30T02:38:45.871Z,1.14
2023-01-30T02:44:26.580Z,1.14
2023-01-30T02:49:34.636Z,1.16
2023-01-30T02:54:36.214Z,1.17
2023-01-30T02:59:43.251Z,1.20
2023-01-30T03:05:18.743Z,1.20
2023-01-30T03:15:50.039Z,1.20
2023-01-30T03:20:51.728Z,1.10
2023-01-30T03:25:53.791Z,1.10
2023-01-30T03:30:55.567Z,1.08
2023-01-30T03:35:57.230Z,1.05
2023-01-30T03:40:58.813Z,1.08
2023-01-30T03:46:00.485Z,1.05
2023-01-30T03:51:03.534Z,1.05
2023-01-30T03:56:05.498Z,1.01
2023-01-30T04:01:09.638Z,1.01
2023-01-30T04:06:11.541Z,0.94
2023-01-30T04:11:13.202Z,1.00
2023-01-30T04:16:23.883Z,0.96
2023-01-30T04:21:44.107Z,1.02
2023-01-30T04:26:46.543Z,1.06
2023-01-30T04:31:48.685Z,1.08
2023-01-30T04:37:02.504Z,1.11
2023-01-30T04:42:05.468Z,1.10
2023-01-30T04:47:14.902Z,1.07
2023-01-30T04:52:16.629Z,1.02
2023-01-30T04:57:18.166Z,1.01
2023-01-30T05:02:21.273Z,1.03
2023-01-30T05:07:24.470Z,1.10
2023-01-30T05:12:26.020Z,1.11
2023-01-30T05:17:27.765Z,1.15
2023-01-30T05:22:29.288Z,1.24
2023-01-30T05:27:30.923Z,1.27
2023-01-30T05:32:32.458Z,1.33
2023-01-30T05:37:34.042Z,1.34
2023-01-30T05:42:35.599Z,1.33
2023-01-30T05:47:37.192Z,1.29
2023-01-30T05:52:38.726Z,1.33
2023-01-30T05:57:40.263Z,1.32
2023-01-30T06:02:41.880Z,1.28
2023-01-30T06:07:43.415Z,1.31
2023-01-30T06:12:44.932Z,1.29
2023-01-30T06:17:46.489Z,1.21
2023-01-30T06:22:49.137Z,1.23
2023-01-30T06:27:50.793Z,1.19
2023-01-30T06:32:52.470Z,1.21
2023-01-30T06:37:54.019Z,1.18
2023-01-30T06:42:55.606Z,1.23
2023-01-30T06:47:57.246Z,1.28
2023-01-30T06:53:01.172Z,1.33
2023-01-30T06:58:06.988Z,1.37
2023-01-30T07:03:16.583Z,1.33
2023-01-30T07:08:18.211Z,1.38
2023-01-30T07:13:19.753Z,1.41
2023-01-30T07:18:21.369Z,1.46
2023-01-30T07:23:22.889Z,1.55
2023-01-30T07:28:24.435Z,1.56
2023-01-30T07:33:26.022Z,1.51
2023-01-30T07:38:27.680Z,1.47
2023-01-30T07:43:29.251Z,1.50
2023-01-30T07:48:30.776Z,1.51
2023-01-30T07:53:32.296Z,1.50
2023-01-30T07:58:33.956Z,1.59
2023-01-30T08:03:35.621Z,1.64
2023-01-30T08:08:37.277Z,1.74
2023-01-30T08:13:38.769Z,1.85
2023-01-30T08:18:40.316Z,1.84
2023-01-30T08:23:41.818Z,1.77
2023-01-30T08:28:43.438Z,1.88
2023-01-30T08:33:44.971Z,1.91
2023-01-30T08:38:46.676Z,1.99
2023-01-30T08:43:48.203Z,2.04
2023-01-30T08:48:50.555Z,2.07
2023-01-30T08:53:52.253Z,2.11
2023-01-30T08:58:54.001Z,2.19
2023-01-30T09:03:55.641Z,2.26
2023-01-30T09:08:59.649Z,2.29
2023-01-30T09:14:01.494Z,2.37
2023-01-30T09:19:03.331Z,2.42
2023-01-30T09:24:05.948Z,2.49
2023-01-30T09:29:07.519Z,2.55
2023-01-30T09:34:09.178Z,2.65
2023-01-30T09:39:10.677Z,2.60
2023-01-30T09:45:07.803Z,2.62
2023-01-30T09:50:42.164Z,2.69
2023-01-30T09:55:46.157Z,2.72
2023-01-30T10:00:51.753Z,2.74
2023-01-30T10:05:58.842Z,2.72
2023-01-30T10:11:41.086Z,2.72
2023-01-30T10:16:53.926Z,2.74
2023-01-30T10:22:28.984Z,2.83
2023-01-30T10:27:32.844Z,2.83
2023-01-30T10:32:55.856Z,2.85
2023-01-30T10:38:27.068Z,2.89
2023-01-30T10:43:41.447Z,2.93
2023-01-30T10:48:59.534Z,2.96
2023-01-30T10:54:03.503Z,3.00
2023-01-30T10:59:24.738Z,3.05
2023-01-30T11:04:39.505Z,3.09
2023-01-30T11:09:43.186Z,3.12
2023-01-30T11:14:58.747Z,3.19
2023-01-30T11:20:11.867Z,3.20
2023-01-30T11:25:21.746Z,3.15
2023-01-30T11:30:29.037Z,3.16
2023-01-30T11:35:32.843Z,3.16
2023-01-30T11:40:39.867Z,3.20
2023-01-30T11:45:45.665Z,3.26
2023-01-30T11:50:50.251Z,3.28
2023-01-30T11:56:19.741Z,3.35
2023-01-30T12:01:28.197Z,3.36
2023-01-30T12:06:41.727Z,3.34
2023-01-30T12:11:46.349Z,3.38
2023-01-30T12:17:00.387Z,3.43
2023-01-30T12:22:22.843Z,3.45
2023-01-30T12:28:12.563Z,3.43
2023-01-30T12:33:22.299Z,3.50
2023-01-30T12:38:47.316Z,3.55
2023-01-30T12:44:22.598Z,3.56
2023-01-30T12:50:01.138Z,3.60
2023-01-30T12:55:22.081Z,3.62
2023-01-30T13:01:02.260Z,3.59
2023-01-30T13:06:23.162Z,3.60
2023-01-30T13:11:41.924Z,3.61
2023-01-30T13:17:03.413Z,3.63
2023-01-30T13:22:26.039Z,3.62
2023-01-30T13:27:35.310Z,3.49
2023-01-30T13:33:03.078Z,3.44
2023-01-30T13:38:08.307Z,3.47
2023-01-30T13:43:23.117Z,3.60
2023-01-30T13:48:42.817Z,3.66
2023-01-30T13:54:10.710Z,3.76
2023-01-30T13:59:55.902Z,3.80
2023-01-30T14:05:05.817Z,3.86
2023-01-30T14:10:10.458Z,3.86
2023-01-30T14:15:15.489Z,3.96
2023-01-30T14:20:36.305Z,3.97
2023-01-30T14:25:47.604Z,4.04
2023-01-30T14:30:52.408Z,4.03
2023-01-30T14:36:04.679Z,3.99
2023-01-30T14:41:38.934Z,4.02
2023-01-30T14:46:54.470Z,4.06
2023-01-30T14:52:00.283Z,4.08
2023-01-30T14:57:27.673Z,4.10
2023-01-30T15:02:49.011Z,4.09
2023-01-30T15:08:07.211Z,4.10
2023-01-30T15:13:21.018Z,4.13
2023-01-30T15:18:28.499Z,4.12
2023-01-30T15:24:05.056Z,4.18
2023-01-30T15:29:48.608Z,4.18
2023-01-30T15:34:57.090Z,4.24
2023-01-30T15:40:21.701Z,4.24
2023-01-30T15:45:44.535Z,4.23
2023-01-30T15:50:54.823Z,4.21
2023-01-30T15:56:00.718Z,4.32
2023-01-30T16:01:03.907Z,4.33
2023-01-30T16:06:06.062Z,4.37
2023-01-30T16:11:12.531Z,4.34
2023-01-30T16:16:19.392Z,4.34
2023-01-30T16:21:34.312Z,4.32
2023-01-30T16:26:44.342Z,4.38
2023-01-30T16:31:52.543Z,4.39
2023-01-30T16:36:57.554Z,4.35
2023-01-30T16:42:13.802Z,4.30
2023-01-30T16:47:32.654Z,4.30
2023-01-30T16:52:44.396Z,4.36
2023-01-30T16:57:56.058Z,4.34
2023-01-30T17:03:08.757Z,4.36
2023-01-30T17:09:10.223Z,4.44
2023-01-30T17:14:17.513Z,4.40
2023-01-30T17:19:19.049Z,4.37
2023-01-30T17:24:24.196Z,4.38
2023-01-30T17:29:42.868Z,4.37
2023-01-30T17:34:47.723Z,4.39
2023-01-30T17:39:51.229Z,4.40
2023-01-30T17:44:55.398Z,4.42
2023-01-30T17:49:56.950Z,4.38
2023-01-30T17:55:07.791Z,4.42
2023-01-30T18:00:18.775Z,4.44
2023-01-30T18:05:29.477Z,4.40
2023-01-30T18:10:35.353Z,4.43
2023-01-30T18:15:40.238Z,4.38
2023-01-30T18:20:42.678Z,4.44
2023-01-30T18:25:46.587Z,4.45
2023-01-30T18:30:54.966Z,4.51
2023-01-30T18:36:04.297Z,4.48
2023-01-30T18:41:10.258Z,4.40
2023-01-30T18:46:27.073Z,4.44
2023-01-30T18:51:36.134Z,4.47
2023-01-30T18:56:38.636Z,4.48
2023-01-30T19:01:42.716Z,4.53
2023-01-30T19:06:48.392Z,4.48
2023-01-30T19:12:10.093Z,4.58
2023-01-30T19:17:16.311Z,4.53
2023-01-30T19:22:19.133Z,4.56
2023-01-30T19:27:21.121Z,4.63
2023-01-30T19:32:26.382Z,4.60
2023-01-30T19:37:30.339Z,4.62
2023-01-30T19:42:31.915Z,4.64
2023-01-30T19:47:34.389Z,4.61
2023-01-30T19:52:40.770Z,4.66
2023-01-30T19:57:46.819Z,4.64
2023-01-30T20:02:52.528Z,4.64
2023-01-30T20:07:58.383Z,4.68
2023-01-30T20:13:07.153Z,4.69
2023-01-30T20:18:08.703Z,4.78
2023-01-30T20:23:10.592Z,4.72
2023-01-30T20:28:19.101Z,4.79
2023-01-30T20:33:21.149Z,4.74
2023-01-30T20:38:25.021Z,4.73
2023-01-30T20:43:33.889Z,4.74
2023-01-30T20:48:37.364Z,4.76
2023-01-30T20:53:47.449Z,4.74
2023-01-30T20:58:50.717Z,4.79
2023-01-30T21:03:57.469Z,4.71
2023-01-30T21:09:03.250Z,4.71
2023-01-30T21:14:15.922Z,4.70
2023-01-30T21:19:23.105Z,4.62
2023-01-30T21:24:28.184Z,4.55
2023-01-30T21:29:34.965Z,4.59
2023-01-30T21:34:40.605Z,4.56
2023-01-30T21:40:25.572Z,4.54
2023-01-30T21:45:31.811Z,4.51
2023-01-30T21:50:35.681Z,4.52
2023-01-30T21:55:37.850Z,4.54
2023-01-30T22:00:44.794Z,4.50
2023-01-30T22:05:48.985Z,4.56
2023-01-30T22:10:50.680Z,4.49
2023-01-30T22:16:14.764Z,4.62
2023-01-30T22:21:26.743Z,4.60
2023-01-30T22:26:31.238Z,4.62
2023-01-30T22:31:35.558Z,4.66
2023-01-30T22:36:39.808Z,4.63
2023-01-30T22:41:52.066Z,4.60
2023-01-30T22:46:55.261Z,4.62
2023-01-30T22:52:01.601Z,4.51
2023-01-30T22:57:06.091Z,4.52
2023-01-30T23:02:10.225Z,4.44
2023-01-30T23:07:17.691Z,4.53
2023-01-30T23:12:40.366Z,4.44
2023-01-30T23:18:05.617Z,4.43
2023-01-30T23:23:09.662Z,4.46
2023-01-30T23:28:24.563Z,4.54
2023-01-30T23:33:28.448Z,4.56
2023-01-30T23:38:35.408Z,4.61
2023-01-30T23:43:40.406Z,4.46
2023-01-30T23:48:44.478Z,4.46
2023-01-30T23:53:48.426Z,4.54
2023-01-30T23:58:50.313Z,4.56
